Time;durP1;ratioP1;P1;durP2;ratioP2;P2;SDS_P1;SDS_P2;PMS_P1;PMS_P2;Temp;Humidity;BMP_temperature;BMP_pressure;BME280_temperature;BME280_humidity;BME280_pressure;Samples;Min_cycle;Max_cycle;Signal;HPM_P1;HPM_P2
2021/05/31 00:00:35;;;;;;;7.67;5.00;;;;;;;;;;5054458;28;20029;-58
2021/05/31 00:03:04;;;;;;;10.30;5.70;;;;;;;;;;5053042;28;20408;-58
2021/05/31 00:05:31;;;;;;;9.00;4.77;;;;;;;;;;5055024;28;20087;-58
2021/05/31 00:07:58;;;;;;;5.63;4.63;;;;;;;;;;5054893;28;20396;-58
2021/05/31 00:10:25;;;;;;;6.87;5.27;;;;;;;;;;5054885;28;20577;-58
2021/05/31 00:12:52;;;;;;;8.10;5.33;;;;;;;;;;5054853;28;20044;-58
2021/05/31 00:15:20;;;;;;;9.13;5.90;;;;;;;;;;5054935;28;20032;-58
2021/05/31 00:17:48;;;;;;;9.67;6.47;;;;;;;;;;5054846;28;20103;-58
2021/05/31 00:20:15;;;;;;;9.27;6.30;;;;;;;;;;5054715;28;20029;-58
2021/05/31 00:22:42;;;;;;;14.53;7.03;;;;;;;;;;5055334;28;20060;-58
2021/05/31 00:25:10;;;;;;;9.80;6.30;;;;;;;;;;5054775;28;20075;-58
2021/05/31 00:27:37;;;;;;;7.63;5.37;;;;;;;;;;5054761;28;20115;-58
2021/05/31 00:30:05;;;;;;;11.83;6.03;;;;;;;;;;5053715;28;20488;-58
2021/05/31 00:32:32;;;;;;;9.43;6.20;;;;;;;;;;5054199;28;20032;-58
2021/05/31 00:34:59;;;;;;;8.17;6.33;;;;;;;;;;5054524;28;20477;-58
2021/05/31 00:37:25;;;;;;;9.10;6.53;;;;;;;;;;5054498;28;20480;-58
2021/05/31 00:39:52;;;;;;;11.33;6.17;;;;;;;;;;5054316;28;20381;-58
2021/05/31 00:42:19;;;;;;;10.63;6.57;;;;;;;;;;5054237;28;20108;-57
2021/05/31 00:44:46;;;;;;;9.73;6.07;;;;;;;;;;5054243;28;20033;-57
2021/05/31 00:47:12;;;;;;;7.60;5.67;;;;;;;;;;5054491;28;20029;-58
2021/05/31 00:49:39;;;;;;;9.93;6.93;;;;;;;;;;5036293;28;20035;-58
2021/05/31 00:52:07;;;;;;;9.27;6.93;;;;;;;;;;5054016;28;20120;-57
2021/05/31 00:54:34;;;;;;;11.70;6.77;;;;;;;;;;5054040;28;20029;-58
2021/05/31 00:57:02;;;;;;;10.57;6.93;;;;;;;;;;5053954;28;20029;-58
2021/05/31 00:59:29;;;;;;;9.03;6.13;;;;;;;;;;5035810;28;20029;-58
2021/05/31 01:01:56;;;;;;;14.37;6.57;;;;;;;;;;5054090;28;20441;-58
2021/05/31 01:04:23;;;;;;;9.90;7.17;;;;;;;;;;5054037;28;20028;-58
2021/05/31 01:07:05;;;;;;;9.90;7.60;;;;;;;;;;5053993;28;20049;-58
2021/05/31 01:09:45;;;;;;;13.50;7.63;;;;;;;;;;5053639;28;20032;-56
2021/05/31 01:12:30;;;;;;;9.57;7.33;;;;;;;;;;5053675;28;20395;-57
2021/05/31 01:15:14;;;;;;;11.15;8.52;;;;;;;;;;5054021;28;20395;-56
2021/05/31 01:18:03;;;;;;;11.93;8.70;;;;;;;;;;5053562;28;20032;-58
2021/05/31 01:20:54;;;;;;;10.37;8.60;;;;;;;;;;5053460;28;20036;-59
2021/05/31 01:23:35;;;;;;;13.77;9.17;;;;;;;;;;5053401;28;20053;-58
2021/05/31 01:26:21;;;;;;;14.50;9.60;;;;;;;;;;5053626;28;20035;-58
2021/05/31 01:29:07;;;;;;;17.87;9.27;;;;;;;;;;5053021;28;20029;-58
2021/05/31 01:31:34;;;;;;;16.23;9.20;;;;;;;;;;5053473;28;20402;-59
2021/05/31 01:34:18;;;;;;;;;;;;;;;;;;;;;
2021/05/31 01:36:50;;;;;;;16.23;9.40;;;;;;;;;;5049405;28;20049;-58
2021/05/31 01:39:20;;;;;;;16.63;9.00;;;;;;;;;;5053105;28;20366;-59
2021/05/31 01:42:02;;;;;;;14.13;9.37;;;;;;;;;;5053088;28;20526;-58
2021/05/31 01:44:37;;;;;;;12.50;9.07;;;;;;;;;;5052916;28;20078;-59
2021/05/31 01:47:06;;;;;;;12.17;8.37;;;;;;;;;;5053250;28;20112;-59
2021/05/31 01:49:39;;;;;;;12.83;9.60;;;;;;;;;;5052792;28;20096;-58
2021/05/31 01:52:07;;;;;;;14.10;9.27;;;;;;;;;;5053083;28;20033;-58
2021/05/31 01:54:34;;;;;;;17.37;9.63;;;;;;;;;;5052970;28;20025;-58
2021/05/31 01:57:01;;;;;;;12.83;8.77;;;;;;;;;;5053100;28;20658;-59
2021/05/31 01:59:28;;;;;;;14.30;7.77;;;;;;;;;;5052889;28;20021;-58
2021/05/31 02:01:55;;;;;;;15.00;9.43;;;;;;;;;;5053055;28;20039;-57
2021/05/31 02:04:23;;;;;;;13.80;8.30;;;;;;;;;;5052841;28;20104;-59
2021/05/31 02:06:51;;;;;;;11.77;9.33;;;;;;;;;;5052791;28;20422;-59
2021/05/31 02:09:18;;;;;;;13.77;8.90;;;;;;;;;;5053026;28;20086;-58
2021/05/31 02:11:51;;;;;;;8.97;6.87;;;;;;;;;;5052654;28;20040;-58
2021/05/31 02:14:28;;;;;;;9.63;5.53;;;;;;;;;;5052836;28;20025;-57
2021/05/31 02:16:58;;;;;;;7.60;5.23;;;;;;;;;;5052631;28;20111;-57
2021/05/31 02:19:26;;;;;;;6.77;4.50;;;;;;;;;;5052704;28;20030;-58
2021/05/31 02:22:01;;;;;;;6.03;4.53;;;;;;;;;;5053072;28;20049;-59
2021/05/31 02:24:31;;;;;;;8.77;5.17;;;;;;;;;;5052720;28;20025;-59
2021/05/31 02:26:58;;;;;;;5.50;3.90;;;;;;;;;;5052457;28;20090;-59
2021/05/31 02:29:26;;;;;;;7.90;3.87;;;;;;;;;;5052457;28;20033;-59
2021/05/31 02:31:54;;;;;;;5.53;3.70;;;;;;;;;;5052466;28;20043;-57
2021/05/31 02:34:21;;;;;;;8.20;3.60;;;;;;;;;;5052621;28;20021;-58
2021/05/31 02:36:48;;;;;;;7.73;4.13;;;;;;;;;;5052480;28;20116;-58
2021/05/31 02:39:16;;;;;;;5.77;3.63;;;;;;;;;;5052296;28;20033;-58
2021/05/31 02:41:43;;;;;;;7.47;4.10;;;;;;;;;;5052576;28;20040;-58
2021/05/31 02:44:10;;;;;;;7.60;4.63;;;;;;;;;;5052316;28;20029;-57
2021/05/31 02:46:36;;;;;;;6.80;3.50;;;;;;;;;;5052456;28;20033;-59
2021/05/31 02:49:06;;;;;;;5.10;4.00;;;;;;;;;;5052381;28;20021;-57
2021/05/31 02:51:33;;;;;;;6.10;4.07;;;;;;;;;;5052327;28;20044;-59
2021/05/31 02:54:00;;;;;;;6.83;4.00;;;;;;;;;;5053663;28;20031;-58
2021/05/31 02:56:26;;;;;;;7.40;4.23;;;;;;;;;;5056413;28;20057;-59
2021/05/31 02:58:53;;;;;;;7.83;3.87;;;;;;;;;;5056161;28;20025;-58
2021/05/31 03:01:20;;;;;;;7.43;4.57;;;;;;;;;;5056266;28;20017;-59
2021/05/31 03:03:47;;;;;;;8.47;5.20;;;;;;;;;;5055991;28;20468;-58
2021/05/31 03:06:14;;;;;;;9.90;4.50;;;;;;;;;;5055936;28;20024;-58
2021/05/31 03:08:40;;;;;;;8.90;4.63;;;;;;;;;;5056090;28;20029;-59
2021/05/31 03:11:07;;;;;;;8.43;4.67;;;;;;;;;;5055840;28;20106;-58
2021/05/31 03:13:34;;;;;;;8.33;4.83;;;;;;;;;;5055992;28;20025;-57
2021/05/31 03:16:01;;;;;;;10.67;4.17;;;;;;;;;;5055963;28;20534;-57
2021/05/31 03:18:27;;;;;;;8.37;4.53;;;;;;;;;;5038046;28;20482;-57
2021/05/31 03:20:54;;;;;;;7.47;4.10;;;;;;;;;;5055938;28;20025;-57
2021/05/31 03:23:21;;;;;;;8.20;4.50;;;;;;;;;;5056414;28;20053;-57
2021/05/31 03:25:48;;;;;;;10.87;4.43;;;;;;;;;;5055806;28;20098;-58
2021/05/31 03:28:15;;;;;;;9.50;5.17;;;;;;;;;;5055778;28;20043;-58
2021/05/31 03:30:41;;;;;;;11.20;5.77;;;;;;;;;;5055632;28;20469;-58
2021/05/31 03:33:08;;;;;;;7.07;4.90;;;;;;;;;;5037935;28;20029;-58
2021/05/31 03:35:35;;;;;;;9.00;4.70;;;;;;;;;;5056000;28;20029;-58
2021/05/31 03:38:02;;;;;;;6.80;5.47;;;;;;;;;;5055642;28;20029;-58
2021/05/31 03:40:28;;;;;;;18.63;5.90;;;;;;;;;;5055501;28;20541;-58
2021/05/31 03:42:56;;;;;;;8.13;5.00;;;;;;;;;;5037582;28;20515;-58
2021/05/31 03:45:23;;;;;;;10.87;6.83;;;;;;;;;;5055405;28;20024;-58
2021/05/31 03:47:50;;;;;;;9.33;7.00;;;;;;;;;;5055317;28;20024;-58
2021/05/31 03:50:17;;;;;;;13.87;7.70;;;;;;;;;;5055359;28;20501;-58
2021/05/31 03:52:44;;;;;;;11.40;6.60;;;;;;;;;;5055298;28;20037;-58
2021/05/31 03:55:12;;;;;;;11.73;7.07;;;;;;;;;;5055536;28;20029;-58
2021/05/31 03:57:40;;;;;;;10.07;6.27;;;;;;;;;;5055216;28;20384;-58
2021/05/31 04:00:08;;;;;;;11.63;6.83;;;;;;;;;;5055221;28;20032;-58
2021/05/31 04:02:38;;;;;;;13.17;7.07;;;;;;;;;;5055306;28;20036;-58
2021/05/31 04:05:05;;;;;;;11.30;6.90;;;;;;;;;;5054882;28;20029;-58
2021/05/31 04:13:05;;;;;;;12.20;7.13;;;;;;;;;;5055251;28;20040;-58
2021/05/31 04:15:32;;;;;;;11.10;7.10;;;;;;;;;;5054823;28;20021;-58
2021/05/31 04:17:59;;;;;;;11.43;6.73;;;;;;;;;;5054749;28;20063;-58
2021/05/31 04:20:26;;;;;;;9.80;6.60;;;;;;;;;;5054752;28;20029;-58
2021/05/31 04:22:53;;;;;;;11.07;6.10;;;;;;;;;;5033600;28;20065;-58
2021/05/31 04:25:19;;;;;;;11.57;6.87;;;;;;;;;;5034889;28;20039;-58
2021/05/31 04:27:46;;;;;;;9.67;6.00;;;;;;;;;;5034829;28;20030;-58
2021/05/31 04:30:13;;;;;;;11.33;6.70;;;;;;;;;;5034716;28;20075;-58
2021/05/31 04:32:40;;;;;;;10.07;5.80;;;;;;;;;;5034654;28;20037;-58
2021/05/31 04:35:07;;;;;;;9.13;6.53;;;;;;;;;;5034659;28;20033;-58
2021/05/31 04:37:34;;;;;;;11.93;7.10;;;;;;;;;;5033670;28;20428;-58
2021/05/31 04:40:02;;;;;;;13.97;6.93;;;;;;;;;;5034441;28;20025;-58
2021/05/31 04:42:29;;;;;;;9.47;6.73;;;;;;;;;;5034801;28;20040;-58
2021/05/31 04:44:56;;;;;;;12.40;7.90;;;;;;;;;;5034498;28;20079;-58
2021/05/31 04:47:23;;;;;;;10.87;7.07;;;;;;;;;;5034347;28;20029;-58
2021/05/31 04:49:49;;;;;;;12.67;7.13;;;;;;;;;;5034192;28;20481;-58
2021/05/31 04:52:16;;;;;;;11.87;7.93;;;;;;;;;;5034217;28;20045;-58
2021/05/31 04:54:43;;;;;;;11.40;6.87;;;;;;;;;;5034375;28;20025;-58
2021/05/31 04:57:10;;;;;;;15.83;8.07;;;;;;;;;;5034251;28;20061;-58
2021/05/31 04:59:37;;;;;;;15.70;7.47;;;;;;;;;;5034203;28;20272;-58
2021/05/31 05:02:04;;;;;;;13.13;6.87;;;;;;;;;;5034334;28;20030;-58
2021/05/31 05:04:31;;;;;;;11.20;6.50;;;;;;;;;;5034207;28;20021;-58
2021/05/31 05:06:57;;;;;;;7.63;5.80;;;;;;;;;;5033970;28;20083;-58
2021/05/31 05:09:24;;;;;;;10.50;6.47;;;;;;;;;;5033931;28;20033;-58
2021/05/31 05:11:51;;;;;;;10.97;6.93;;;;;;;;;;5033793;28;20041;-58
2021/05/31 05:14:18;;;;;;;9.80;7.00;;;;;;;;;;5033876;28;20022;-58
2021/05/31 05:16:45;;;;;;;10.40;6.60;;;;;;;;;;5033370;28;20037;-58
2021/05/31 05:19:12;;;;;;;12.97;7.27;;;;;;;;;;5034042;28;20560;-58
2021/05/31 05:21:41;;;;;;;14.20;6.87;;;;;;;;;;5034783;28;20115;-58
2021/05/31 05:24:08;;;;;;;10.73;6.33;;;;;;;;;;5033645;28;20018;-58
2021/05/31 05:26:34;;;;;;;11.17;6.83;;;;;;;;;;5015909;28;20475;-58
2021/05/31 05:29:01;;;;;;;9.80;6.53;;;;;;;;;;5033354;28;20049;-58
2021/05/31 05:31:28;;;;;;;9.03;5.90;;;;;;;;;;5033428;28;20022;-58
2021/05/31 05:33:57;;;;;;;10.13;4.80;;;;;;;;;;5033506;28;20029;-58
2021/05/31 05:36:50;;;;;;;11.30;5.20;;;;;;;;;;5033325;28;20096;-58
2021/05/31 05:49:49;;;;;;;8.93;4.68;;;;;;;;;;5033165;28;20096;-58
2021/05/31 05:52:16;;;;;;;8.93;5.60;;;;;;;;;;5033038;28;20041;-58
2021/05/31 05:54:43;;;;;;;8.87;5.43;;;;;;;;;;5033080;28;20026;-58
2021/05/31 05:57:10;;;;;;;10.83;5.80;;;;;;;;;;5033196;28;20148;-58
2021/05/31 05:59:37;;;;;;;9.40;5.27;;;;;;;;;;5032911;28;20084;-58
2021/05/31 06:02:05;;;;;;;7.10;4.53;;;;;;;;;;5032925;28;20670;-58
2021/05/31 06:04:34;;;;;;;7.50;4.67;;;;;;;;;;5032856;28;20033;-58
2021/05/31 06:07:14;;;;;;;6.57;4.33;;;;;;;;;;5032814;28;20029;-58
2021/05/31 06:09:41;;;;;;;7.63;5.03;;;;;;;;;;5032720;28;20128;-58
2021/05/31 06:12:08;;;;;;;10.30;4.50;;;;;;;;;;5014949;28;20048;-58
2021/05/31 06:14:35;;;;;;;5.43;3.93;;;;;;;;;;5032696;28;20059;-58
2021/05/31 06:17:01;;;;;;;5.90;3.83;;;;;;;;;;5032784;28;20112;-58
2021/05/31 06:19:29;;;;;;;11.73;4.73;;;;;;;;;;5032876;28;20036;-58
2021/05/31 06:21:56;;;;;;;7.20;5.17;;;;;;;;;;5033719;28;20136;-58
2021/05/31 06:24:22;;;;;;;8.10;5.60;;;;;;;;;;5032751;28;20408;-58
2021/05/31 06:26:49;;;;;;;17.17;5.80;;;;;;;;;;5032754;28;20078;-58
2021/05/31 06:29:16;;;;;;;10.33;5.13;;;;;;;;;;5031747;28;20033;-58
2021/05/31 06:31:43;;;;;;;8.73;5.57;;;;;;;;;;5032655;28;20034;-58
2021/05/31 06:34:09;;;;;;;8.63;5.40;;;;;;;;;;5032836;28;20385;-58
2021/05/31 06:36:40;;;;;;;7.93;5.43;;;;;;;;;;5032813;28;20092;-58
2021/05/31 06:39:08;;;;;;;9.67;6.17;;;;;;;;;;5032437;28;20461;-58
2021/05/31 06:41:35;;;;;;;11.00;6.13;;;;;;;;;;5032576;28;20557;-58
2021/05/31 06:44:02;;;;;;;12.47;5.73;;;;;;;;;;5052247;28;20044;-58
2021/05/31 06:46:29;;;;;;;8.00;5.43;;;;;;;;;;5052577;28;20336;-58
2021/05/31 06:48:56;;;;;;;9.50;6.00;;;;;;;;;;5052524;28;20101;-58
2021/05/31 06:51:22;;;;;;;10.07;7.07;;;;;;;;;;5052475;28;20468;-58
2021/05/31 06:53:49;;;;;;;12.63;6.93;;;;;;;;;;5052342;28;20166;-58
2021/05/31 06:56:16;;;;;;;12.20;7.50;;;;;;;;;;5052490;28;20074;-58
2021/05/31 06:58:44;;;;;;;12.80;6.73;;;;;;;;;;5052258;28;20044;-58
2021/05/31 07:01:10;;;;;;;9.93;6.33;;;;;;;;;;5052321;28;20024;-58
2021/05/31 07:03:38;;;;;;;11.37;6.70;;;;;;;;;;5052237;28;20037;-58
2021/05/31 07:06:05;;;;;;;8.77;6.07;;;;;;;;;;5052362;28;20032;-58
2021/05/31 07:08:32;;;;;;;9.03;6.20;;;;;;;;;;5052276;28;20423;-58
2021/05/31 07:11:03;;;;;;;10.57;5.83;;;;;;;;;;5052121;28;20027;-58
2021/05/31 07:13:30;;;;;;;10.57;6.93;;;;;;;;;;5052459;28;20052;-58
2021/05/31 07:15:57;;;;;;;11.03;7.20;;;;;;;;;;5052098;28;20025;-58
2021/05/31 07:18:24;;;;;;;14.47;6.90;;;;;;;;;;5052090;28;20542;-58
2021/05/31 07:20:52;;;;;;;13.70;7.30;;;;;;;;;;5052228;28;20592;-58
2021/05/31 07:23:20;;;;;;;12.17;8.00;;;;;;;;;;5038500;28;20049;-58
2021/05/31 07:25:47;;;;;;;12.57;8.50;;;;;;;;;;5032139;28;20381;-58
2021/05/31 07:28:14;;;;;;;14.97;8.53;;;;;;;;;;5032054;28;20026;-58
2021/05/31 07:30:41;;;;;;;11.67;8.40;;;;;;;;;;5032251;28;20025;-58
2021/05/31 07:33:12;;;;;;;11.13;8.00;;;;;;;;;;5031888;28;20030;-58
2021/05/31 07:35:40;;;;;;;15.07;7.90;;;;;;;;;;5032020;28;20036;-58
2021/05/31 07:38:07;;;;;;;12.13;8.07;;;;;;;;;;5031916;28;20025;-58
2021/05/31 07:40:33;;;;;;;13.73;9.47;;;;;;;;;;5033887;28;20072;-58
2021/05/31 07:43:00;;;;;;;13.63;9.63;;;;;;;;;;5035594;28;20044;-58
2021/05/31 07:45:27;;;;;;;14.40;9.33;;;;;;;;;;5035550;28;20028;-58
2021/05/31 07:47:54;;;;;;;14.87;9.47;;;;;;;;;;5035428;28;20059;-58
2021/05/31 07:50:21;;;;;;;14.70;9.23;;;;;;;;;;5035304;28;20048;-58
2021/05/31 07:52:48;;;;;;;15.23;9.17;;;;;;;;;;5035370;28;20057;-58
2021/05/31 07:55:16;;;;;;;13.50;9.20;;;;;;;;;;5035267;28;20056;-58
2021/05/31 07:57:43;;;;;;;12.30;8.60;;;;;;;;;;5035399;28;20049;-58
2021/05/31 08:00:11;;;;;;;17.40;9.90;;;;;;;;;;5035291;28;20026;-58
2021/05/31 08:02:41;;;;;;;15.57;8.27;;;;;;;;;;5035329;28;20018;-58
2021/05/31 08:05:08;;;;;;;16.10;9.80;;;;;;;;;;5035343;28;20022;-58
2021/05/31 08:07:35;;;;;;;13.33;9.00;;;;;;;;;;5035002;28;20025;-58
2021/05/31 08:10:02;;;;;;;11.90;8.67;;;;;;;;;;5034974;28;20029;-58
2021/05/31 08:12:29;;;;;;;13.00;8.70;;;;;;;;;;5034938;28;20036;-58
2021/05/31 08:14:58;;;;;;;12.03;8.73;;;;;;;;;;5035068;28;20026;-58
2021/05/31 08:17:25;;;;;;;13.83;9.67;;;;;;;;;;5035030;28;20028;-58
2021/05/31 08:19:52;;;;;;;13.33;9.20;;;;;;;;;;5034892;28;20369;-58
2021/05/31 08:22:19;;;;;;;13.63;9.30;;;;;;;;;;5035857;28;20485;-58
2021/05/31 08:24:45;;;;;;;16.50;9.63;;;;;;;;;;5034861;28;20065;-58
2021/05/31 08:27:12;;;;;;;15.47;8.63;;;;;;;;;;5034574;28;20029;-58
2021/05/31 08:29:39;;;;;;;13.87;9.43;;;;;;;;;;5034622;28;20088;-58
2021/05/31 08:32:06;;;;;;;14.63;9.00;;;;;;;;;;5034447;28;20045;-58
2021/05/31 08:34:33;;;;;;;14.07;9.03;;;;;;;;;;5016819;28;20543;-58
2021/05/31 08:37:00;;;;;;;9.90;8.30;;;;;;;;;;5034545;28;20388;-58
2021/05/31 08:39:27;;;;;;;12.23;8.70;;;;;;;;;;5034358;28;20021;-58
2021/05/31 08:41:54;;;;;;;12.87;9.07;;;;;;;;;;5034491;28;20040;-58
2021/05/31 08:44:20;;;;;;;14.10;9.33;;;;;;;;;;5034492;28;20048;-58
2021/05/31 08:46:47;;;;;;;13.17;8.63;;;;;;;;;;5034293;28;20084;-57
2021/05/31 08:49:14;;;;;;;11.90;8.90;;;;;;;;;;5034258;28;20022;-58
2021/05/31 08:51:41;;;;;;;15.47;9.77;;;;;;;;;;5033218;28;20480;-58
2021/05/31 08:54:08;;;;;;;12.87;8.13;;;;;;;;;;5034327;28;20025;-58
2021/05/31 08:56:35;;;;;;;11.00;7.73;;;;;;;;;;5016461;28;20100;-58
2021/05/31 08:59:02;;;;;;;11.90;7.13;;;;;;;;;;5033986;28;20029;-58
2021/05/31 09:01:29;;;;;;;11.53;8.73;;;;;;;;;;5034041;28;20385;-58
2021/05/31 09:03:57;;;;;;;12.83;9.13;;;;;;;;;;5034171;28;20033;-58
2021/05/31 09:06:26;;;;;;;12.97;8.80;;;;;;;;;;5033942;28;20025;-58
2021/05/31 09:08:54;;;;;;;14.70;9.20;;;;;;;;;;5033924;28;20169;-58
2021/05/31 09:11:23;;;;;;;13.00;8.30;;;;;;;;;;5033896;28;20053;-58
2021/05/31 09:13:50;;;;;;;12.13;7.50;;;;;;;;;;5033846;28;20396;-59
2021/05/31 09:16:18;;;;;;;13.60;8.80;;;;;;;;;;5033951;28;20029;-57
2021/05/31 09:18:51;;;;;;;14.93;8.47;;;;;;;;;;5033760;28;20101;-59
2021/05/31 09:21:22;;;;;;;11.10;7.70;;;;;;;;;;5033963;28;20029;-58
2021/05/31 09:23:56;;;;;;;12.63;8.20;;;;;;;;;;5034876;28;20057;-58
2021/05/31 09:26:23;;;;;;;11.13;7.97;;;;;;;;;;5033640;28;20030;-58
2021/05/31 09:28:53;;;;;;;14.93;8.97;;;;;;;;;;5033459;28;20029;-58
2021/05/31 09:31:21;;;;;;;14.37;9.23;;;;;;;;;;5033412;28;20036;-57
2021/05/31 09:33:57;;;;;;;14.10;8.33;;;;;;;;;;5033591;28;20053;-58
2021/05/31 09:36:26;;;;;;;10.20;7.63;;;;;;;;;;5033285;28;20033;-58
2021/05/31 09:38:53;;;;;;;15.23;10.07;;;;;;;;;;5033346;28;20372;-58
2021/05/31 09:41:24;;;;;;;12.30;9.53;;;;;;;;;;5033387;28;20102;-57
2021/05/31 09:43:59;;;;;;;12.77;8.50;;;;;;;;;;5033387;28;20072;-59
2021/05/31 09:46:35;;;;;;;12.95;8.00;;;;;;;;;;5033290;28;20057;-57
2021/05/31 09:49:02;;;;;;;11.03;7.40;;;;;;;;;;5033258;28;20511;-58
2021/05/31 09:51:29;;;;;;;10.03;7.57;;;;;;;;;;5033194;28;20440;-59
2021/05/31 09:53:56;;;;;;;11.73;8.33;;;;;;;;;;5033148;28;20029;-57
2021/05/31 09:56:23;;;;;;;16.87;9.03;;;;;;;;;;5033136;28;20055;-58
2021/05/31 09:58:54;;;;;;;11.07;7.60;;;;;;;;;;5033171;28;20026;-58
2021/05/31 10:01:34;;;;;;;11.80;7.80;;;;;;;;;;5033008;28;20104;-59
2021/05/31 10:04:19;;;;;;;12.00;8.33;;;;;;;;;;5032681;28;20088;-58
2021/05/31 10:06:59;;;;;;;14.57;8.60;;;;;;;;;;5032999;28;20017;-58
2021/05/31 10:09:26;;;;;;;10.13;7.47;;;;;;;;;;5032712;28;20088;-58
2021/05/31 10:11:54;;;;;;;9.77;7.30;;;;;;;;;;5032784;28;20116;-58
2021/05/31 10:14:21;;;;;;;13.43;7.50;;;;;;;;;;5032941;28;20018;-58
2021/05/31 10:16:48;;;;;;;13.80;7.63;;;;;;;;;;5032693;28;20425;-58
2021/05/31 10:19:15;;;;;;;13.03;8.30;;;;;;;;;;5032683;28;20045;-58
2021/05/31 10:21:42;;;;;;;10.07;7.67;;;;;;;;;;5032825;28;20112;-57
2021/05/31 10:24:09;;;;;;;11.83;8.50;;;;;;;;;;5033768;28;20393;-58
2021/05/31 10:26:36;;;;;;;12.97;8.23;;;;;;;;;;5052503;28;20060;-58
2021/05/31 10:29:04;;;;;;;10.93;8.23;;;;;;;;;;5052463;28;20017;-57
2021/05/31 10:31:40;;;;;;;13.13;9.70;;;;;;;;;;5052524;28;20028;-58
2021/05/31 10:34:07;;;;;;;12.77;8.93;;;;;;;;;;5052582;28;20147;-58
2021/05/31 10:36:35;;;;;;;14.63;9.73;;;;;;;;;;5052671;28;20017;-58
2021/05/31 10:39:04;;;;;;;16.57;11.20;;;;;;;;;;5052317;28;20523;-58
2021/05/31 10:41:31;;;;;;;14.13;9.70;;;;;;;;;;5052624;28;20021;-58
2021/05/31 10:43:59;;;;;;;15.13;10.03;;;;;;;;;;5052398;28;20071;-58
2021/05/31 10:46:30;;;;;;;12.73;9.13;;;;;;;;;;5052810;28;20025;-58
2021/05/31 10:48:57;;;;;;;12.07;9.17;;;;;;;;;;5052387;28;20078;-58
2021/05/31 10:51:27;;;;;;;12.93;8.23;;;;;;;;;;5052342;28;20534;-58
2021/05/31 10:53:54;;;;;;;13.47;8.57;;;;;;;;;;5052428;28;20091;-58
2021/05/31 10:56:21;;;;;;;12.90;9.23;;;;;;;;;;5052304;28;20451;-58
2021/05/31 10:58:53;;;;;;;17.27;8.97;;;;;;;;;;5034464;28;20052;-58
2021/05/31 11:01:22;;;;;;;14.70;8.17;;;;;;;;;;5052273;28;20029;-58
2021/05/31 11:04:02;;;;;;;12.83;8.93;;;;;;;;;;5052253;28;20108;-58
2021/05/31 11:06:38;;;;;;;13.20;9.50;;;;;;;;;;5052168;28;20029;-58
2021/05/31 11:09:05;;;;;;;13.47;9.87;;;;;;;;;;5052218;28;20028;-58
2021/05/31 11:11:41;;;;;;;15.00;8.97;;;;;;;;;;5052271;28;20063;-58
2021/05/31 11:14:09;;;;;;;13.03;9.93;;;;;;;;;;5051968;28;20033;-57
2021/05/31 11:16:36;;;;;;;11.87;8.63;;;;;;;;;;5056536;28;20061;-58
2021/05/31 11:19:06;;;;;;;15.93;8.83;;;;;;;;;;5055890;28;20039;-58
2021/05/31 11:21:44;;;;;;;12.67;8.90;;;;;;;;;;5055952;28;20063;-58
2021/05/31 11:24:20;;;;;;;13.80;9.90;;;;;;;;;;5040219;28;20124;-58
2021/05/31 11:26:49;;;;;;;12.87;9.27;;;;;;;;;;5035939;28;20181;-57
2021/05/31 11:29:16;;;;;;;17.50;10.63;;;;;;;;;;5035789;28;20030;-58
2021/05/31 11:31:46;;;;;;;13.53;9.97;;;;;;;;;;5035689;28;20104;-58
2021/05/31 11:34:13;;;;;;;12.60;9.03;;;;;;;;;;5035863;28;20017;-57
2021/05/31 11:36:40;;;;;;;13.90;9.93;;;;;;;;;;5035668;28;20029;-57
2021/05/31 11:39:08;;;;;;;12.97;9.13;;;;;;;;;;5035506;28;20108;-58
2021/05/31 11:41:38;;;;;;;14.00;9.47;;;;;;;;;;5035765;28;20028;-58
2021/05/31 11:44:06;;;;;;;12.60;9.00;;;;;;;;;;5035702;28;20092;-58
2021/05/31 11:46:33;;;;;;;12.53;7.63;;;;;;;;;;5035547;28;20385;-58
2021/05/31 11:49:09;;;;;;;12.63;8.53;;;;;;;;;;5017730;28;20540;-58
2021/05/31 11:51:35;;;;;;;13.10;8.57;;;;;;;;;;5035382;28;20388;-57
2021/05/31 11:54:02;;;;;;;12.53;9.33;;;;;;;;;;5035723;28;20030;-58
2021/05/31 11:56:33;;;;;;;13.50;9.67;;;;;;;;;;5055407;28;20055;-58
2021/05/31 11:59:00;;;;;;;16.03;11.23;;;;;;;;;;5055196;28;20083;-58
2021/05/31 12:01:28;;;;;;;18.63;12.67;;;;;;;;;;5055348;28;20100;-58
2021/05/31 12:03:55;;;;;;;14.87;9.97;;;;;;;;;;5055349;28;20112;-58
2021/05/31 12:06:22;;;;;;;13.30;9.33;;;;;;;;;;5055241;28;20461;-58
2021/05/31 12:08:53;;;;;;;16.67;9.70;;;;;;;;;;5055056;28;20052;-58
2021/05/31 12:11:27;;;;;;;25.47;11.13;;;;;;;;;;5054948;28;20379;-58
2021/05/31 12:14:03;;;;;;;16.00;9.82;;;;;;;;;;5055028;28;20488;-58
2021/05/31 12:16:30;;;;;;;15.07;9.47;;;;;;;;;;5055228;28;20094;-58
2021/05/31 12:18:57;;;;;;;12.17;8.50;;;;;;;;;;5055010;28;20032;-58
2021/05/31 12:21:24;;;;;;;13.60;8.67;;;;;;;;;;5054695;28;20499;-58
2021/05/31 12:23:52;;;;;;;17.10;9.20;;;;;;;;;;5044621;28;20057;-58
2021/05/31 12:26:23;;;;;;;16.27;9.00;;;;;;;;;;5034847;28;20365;-58
2021/05/31 12:28:55;;;;;;;17.23;10.40;;;;;;;;;;5034701;28;20033;-58
2021/05/31 12:31:22;;;;;;;15.10;9.33;;;;;;;;;;5034600;28;20037;-58
2021/05/31 12:33:58;;;;;;;14.27;9.70;;;;;;;;;;5034724;28;20033;-58
2021/05/31 12:36:24;;;;;;;14.17;8.77;;;;;;;;;;5034663;28;20072;-58
2021/05/31 12:38:52;;;;;;;17.47;11.20;;;;;;;;;;5034404;28;20033;-58
2021/05/31 12:41:19;;;;;;;26.87;14.10;;;;;;;;;;5034558;28;20033;-58
2021/05/31 12:43:46;;;;;;;21.20;14.07;;;;;;;;;;5034633;28;20022;-58
2021/05/31 12:46:17;;;;;;;24.20;13.97;;;;;;;;;;5034515;28;20052;-58
2021/05/31 12:48:48;;;;;;;19.03;12.93;;;;;;;;;;5034431;28;20396;-58
2021/05/31 12:51:15;;;;;;;23.03;14.50;;;;;;;;;;5034156;28;20030;-58
2021/05/31 12:53:45;;;;;;;17.63;11.57;;;;;;;;;;5034294;28;20092;-58
2021/05/31 12:56:12;;;;;;;18.27;11.70;;;;;;;;;;5034301;28;20476;-58
2021/05/31 12:58:39;;;;;;;20.60;12.17;;;;;;;;;;5034582;28;20030;-58
2021/05/31 13:01:06;;;;;;;20.37;12.27;;;;;;;;;;5034009;28;20033;-58
2021/05/31 13:03:33;;;;;;;19.03;12.27;;;;;;;;;;5033977;28;20030;-58
2021/05/31 13:06:01;;;;;;;20.20;12.37;;;;;;;;;;5033950;28;20124;-58
2021/05/31 13:08:38;;;;;;;16.50;12.03;;;;;;;;;;5033977;28;20549;-58
2021/05/31 13:11:05;;;;;;;21.53;11.20;;;;;;;;;;5034063;28;20204;-58
2021/05/31 13:13:35;;;;;;;21.00;11.30;;;;;;;;;;5033836;28;20108;-58
2021/05/31 13:16:08;;;;;;;17.37;11.40;;;;;;;;;;5033781;28;20040;-58
2021/05/31 13:18:41;;;;;;;18.60;10.57;;;;;;;;;;5016936;28;20099;-58
2021/05/31 13:21:13;;;;;;;15.20;11.73;;;;;;;;;;5017048;28;20057;-57
2021/05/31 13:23:40;;;;;;;16.93;11.00;;;;;;;;;;5034705;28;20057;-58
2021/05/31 13:26:15;;;;;;;14.60;10.40;;;;;;;;;;5033870;28;20025;-58
2021/05/31 13:28:42;;;;;;;18.33;11.88;;;;;;;;;;5033676;28;20040;-58
2021/05/31 13:31:13;;;;;;;17.20;11.83;;;;;;;;;;5033526;28;20018;-58
2021/05/31 13:33:46;;;;;;;17.57;11.17;;;;;;;;;;5033416;28;20534;-58
2021/05/31 13:36:14;;;;;;;15.43;11.00;;;;;;;;;;5033555;28;20025;-58
2021/05/31 13:38:41;;;;;;;14.53;10.20;;;;;;;;;;5032846;28;20026;-57
2021/05/31 13:41:08;;;;;;;13.77;10.47;;;;;;;;;;5033254;28;20029;-57
2021/05/31 13:43:36;;;;;;;14.73;10.50;;;;;;;;;;5033287;28;20037;-57
2021/05/31 13:46:04;;;;;;;13.83;9.60;;;;;;;;;;5033299;28;20107;-58
2021/05/31 13:48:34;;;;;;;13.50;8.43;;;;;;;;;;5033292;28;20032;-58
2021/05/31 13:51:02;;;;;;;15.47;10.03;;;;;;;;;;5033223;28;20036;-58
2021/05/31 13:53:29;;;;;;;19.40;11.77;;;;;;;;;;5033190;28;20457;-58
2021/05/31 13:55:57;;;;;;;14.03;10.50;;;;;;;;;;5033080;28;20035;-58
2021/05/31 13:58:23;;;;;;;15.33;10.17;;;;;;;;;;5033043;28;20096;-59
2021/05/31 14:00:51;;;;;;;13.17;9.80;;;;;;;;;;5015293;28;20034;-58
2021/05/31 14:03:18;;;;;;;15.00;9.70;;;;;;;;;;5032980;28;20028;-58
2021/05/31 14:05:46;;;;;;;16.47;10.20;;;;;;;;;;5032978;28;20392;-58
2021/05/31 14:08:14;;;;;;;14.33;9.93;;;;;;;;;;5032871;28;20425;-58
2021/05/31 14:10:41;;;;;;;16.43;11.97;;;;;;;;;;5032839;28;20076;-57
2021/05/31 14:13:08;;;;;;;18.20;11.27;;;;;;;;;;5032865;28;20038;-57
2021/05/31 14:15:36;;;;;;;13.53;10.13;;;;;;;;;;5032842;28;20044;-57
2021/05/31 14:18:04;;;;;;;17.40;11.40;;;;;;;;;;5032808;28;20075;-57
2021/05/31 14:20:31;;;;;;;16.77;11.97;;;;;;;;;;5032734;28;20104;-57
2021/05/31 14:23:03;;;;;;;17.10;10.40;;;;;;;;;;5033902;28;20025;-56
2021/05/31 14:25:54;;;;;;;16.13;11.33;;;;;;;;;;5033115;28;20033;-57
2021/05/31 14:28:24;;;;;;;15.17;10.70;;;;;;;;;;5032506;28;20022;-57
2021/05/31 14:30:51;;;;;;;14.17;11.37;;;;;;;;;;5032321;28;20508;-58
2021/05/31 14:33:33;;;;;;;19.17;11.40;;;;;;;;;;5032587;28;20033;-57
2021/05/31 14:36:02;;;;;;;16.03;11.20;;;;;;;;;;5021735;28;20033;-58
2021/05/31 14:38:34;;;;;;;13.93;10.40;;;;;;;;;;5014765;28;20080;-58
2021/05/31 14:41:05;;;;;;;15.60;10.33;;;;;;;;;;5032342;28;20022;-57
2021/05/31 14:43:32;;;;;;;14.70;10.77;;;;;;;;;;5052533;28;20056;-57
2021/05/31 14:46:02;;;;;;;18.47;9.67;;;;;;;;;;5052440;28;20025;-57
2021/05/31 14:48:36;;;;;;;12.37;9.60;;;;;;;;;;5052339;28;20017;-57
2021/05/31 14:51:12;;;;;;;12.15;9.25;;;;;;;;;;5055614;28;20021;-57
2021/05/31 14:53:40;;;;;;;13.83;10.10;;;;;;;;;;5056541;28;20037;-57
2021/05/31 14:56:07;;;;;;;10.03;7.70;;;;;;;;;;5056522;28;20067;-57